Selviria, Brazil
Current Conditions -  °F | °C
As of 9:00 AM on Monday 20 Oct 2014 (Local Time) from SBAU Reporting Station
Broken Clouds Broken Clouds  
Wind Chill: 73°   Ceiling: 4000
Heat Index: 73°   Visibility: 4mi
Dew Point: 72°   Wind: 3mph
Humidity: 94%   Direction: 150°SSE
Pressure: 30"   Gusts: NA
Location:  20.37°S, 51.42°W
Report Text: SBAU 201300Z 15003KT 7000 SCT025 BKN040 BKN090 23/22 Q1016
Loading
Personal Weather Stations






























Interactive Weather Map
Tropical Storm Tracking
New forecast layout! Learn more

10-Day Weather Forecast

Advertisements
Track Severe Weather on mobile